Tiempo atmosférico en la estación meteorológica de Fuentesauco, Zamora (811 m.)



Fecha
DESCASC
Temp. máxima en grados centígrados (hora)
DESCASC
Temp. mínima en grados centígrados (hora)
DESCASC
Temp. media en grados centígrados
DESCASC
Racha de viento máxima en m/sg (hora)
DESCASC
Velocidad máxima media en intervalos de 10 minutos(hora)
DESCASC
Precipitaciones diarias en mm
DESCASC
Precipitaciones de 00:00 a 06:00 en mm
DESCASC
Precipitaciones de 06:00 a 12:00 en mm
DESCASC
Precipitaciones de 12:00 a 18:00 en mm
DESCASC
Precipitaciones de 18:00 a 24:00 en mm
DESCASC
10-07-2020 31.3 (18:30) 13.4 (07:10) 22.3 11.67 (22:40) 6.67 (22:10) 0 0 0 0 0
09-07-2020 33.4 (18:40) 14.9 (07:30) 24.2 10.28 (19:40) 7.22 (20:20) 0 0 0 0 0
08-07-2020 36.8 (15:20) 17.8 (07:30) 27.3 13.89 (16:30) 8.61 (20:00) 0 0 0 0 0
07-07-2020 36.3 (17:40) 12.8 (07:10) 24.5 10.56 (17:10) 5.83 (18:50) 0 0 0 0 0
06-07-2020 34 (17:30) 15.7 (00:00) 24.8 10 (22:40) 7.22 (21:40) 0 0 0 0 0
05-07-2020 33.7 (17:30) 13.8 (07:00) 23.8 10 (14:20) 4.44 (13:10) 0 0 0 0 0
04-07-2020 31.3 (19:00) 10 (07:10) 20.6 7.22 (14:20) 4.17 (15:20) 0 0 0 0 0
03-07-2020 28.1 (19:00) 8.8 (07:10) 18.5 9.72 (13:30) 5.83 (00:50) 0 0 0 0 0
02-07-2020 26.7 (17:50) 13.2 (00:00) 20 10.83 (18:40) 6.67 (17:00) 0 0 0 0 0
01-07-2020 30.5 (15:50) 15.9 (00:00) 23.2 15.56 (17:20) 7.22 (19:30) 0 0 0 0 0
30-06-2020 34.6 (17:40) 14.6 (00:00) 24.6 15.56 (18:40) 7.78 (18:50) 0 0 0 0 0
29-06-2020 32.4 (19:00) 15 (00:00) 23.7 8.89 (16:10) 4.72 (20:00) 0 0 0 0 0
28-06-2020 30.3 (18:30) 13.2 (00:00) 21.7 8.61 (21:50) 5.56 (21:50) 0 0 0 0 0
27-06-2020 26.6 (17:20) 12.2 (00:00) 19.4 12.5 (16:10) 5.83 (16:10) 0 0 0 0 0
26-06-2020 26.3 (16:00) 13.1 (00:00) 19.7 11.94 (16:00) 7.5 (15:50) 0 0 0 0 0
25-06-2020 31.6 (17:00) 13.7 (00:00) 22.7 11.39 (15:20) 6.39 (17:30) 0.2 0.2 0 0 0
24-06-2020 27.6 (12:10) 16.5 (00:00) 22.1 10.83 (16:40) 6.67 (16:40) 4.6 0 0.4 4.2 0
23-06-2020 35 (15:30) 14.1 (00:00) 24.6 8.61 (18:50) 4.72 (18:50) 0 0 0 0 0
22-06-2020 32.2 (18:00) 12 (00:00) 22.1 9.44 (14:10) 4.72 (12:20) 0 0 0 0 0
21-06-2020 30.2 (18:50) 11.7 (00:00) 21 8.89 (15:30) 4.72 (15:30) 0 0 0 0 0
20-06-2020 29.6 (18:00) 10.8 (00:00) 20.2 10.28 (18:40) 5.83 (19:50) 0 0 0 0 0
19-06-2020 27.1 (17:40) 9.1 (00:00) 18.1 10 (18:40) 5.56 (18:40) 0 0 0 0 0
18-06-2020 25.1 (18:10) 9.1 (05:40) 17.1 9.72 (18:20) 5.56 (18:20) 0 0 0 0 0
17-06-2020 23.1 (19:10) 8.8 (00:00) 16 7.78 (23:59) 5 (23:59) 0 0 0 0 0
16-06-2020 22.2 (16:50) 10.7 (00:00) 16.5 15.56 (18:40) 8.89 (18:00) 0 0 0 0 0
15-06-2020 22.8 (16:40) 10 (00:00) 16.4 10.83 (18:40) 6.67 (20:10) 0 0 0 0 0
14-06-2020 21.8 (17:20) 6.7 (00:00) 14.2 10.28 (16:10) 5.83 (17:30) 0 0 0 0 0
13-06-2020 19.2 (17:30) 7.9 (00:00) 13.6 10.28 (15:10) 6.39 (20:10) 0 0 0 0 0
12-06-2020 16.1 (14:00) 7.5 (00:00) 11.8 17.5 (17:00) 11.67 (17:00) 2.2 0 0.2 1.8 0.2

Gráficas

Temp. máximas Temp. mínimas Temp. medias Precipitaciones Rachas de viento máximas Velocidades máximas media en intervalos de 10 minutos

Datos horarios

Fecha y hora oficial Temperatura (ºC) Velocidad del viento (km/h) Dirección del viento Racha (km/h) Dirección de racha Precipitación (mm) Presión (hPa) Tendencia (hPa) Humedad (%)
2020-07-11 23:00:00 25.3 19 Noroeste 50 Oeste 0 -- -- 50
2020-07-11 22:00:00 27.7 17 Norte 42 Este 0 -- -- 41
2020-07-11 21:00:00 31.4 15 Norte 24 Norte 0 -- -- 27
2020-07-11 20:00:00 33.4 13 Norte 21 Norte 0 -- -- 25
2020-07-11 19:00:00 33.4 11 Norte 17 Oeste 0 -- -- 25
2020-07-11 18:00:00 32.9 8 Nordeste 21 Oeste 0 -- -- 25
2020-07-11 17:00:00 33.4 8 Noroeste 24 Noroeste 0 -- -- 25
2020-07-11 16:00:00 31.5 6 Norte 18 Norte 0 -- -- 30
2020-07-11 15:00:00 30.1 10 Norte 21 Este 0 -- -- 35
2020-07-11 14:00:00 27.9 13 Nordeste 23 Nordeste 0 -- -- 41
2020-07-11 13:00:00 25.2 13 Norte 22 Nordeste 0 -- -- 48
2020-07-11 12:00:00 22.7 12 Nordeste 20 Norte 0 -- -- 53
2020-07-11 11:00:00 19.9 13 Nordeste 21 Nordeste 0 -- -- 61
2020-07-11 10:00:00 17.9 12 Nordeste 19 Nordeste 0 -- -- 67
2020-07-11 09:00:00 15.8 13 Nordeste 19 Norte 0 -- -- 76
2020-07-11 08:00:00 14.1 11 Nordeste 15 Nordeste 0 -- -- 83
2020-07-11 07:00:00 13 11 Norte 13 Norte 0 -- -- 88
2020-07-11 06:00:00 13.5 9 Nordeste 14 Nordeste 0 -- -- 86
2020-07-11 05:00:00 14 9 Nordeste 13 Nordeste 0 -- -- 85
2020-07-11 04:00:00 14.6 8 Nordeste 22 Nordeste 0 -- -- 82
2020-07-11 03:00:00 15.7 17 Nordeste 24 Nordeste 0 -- -- 79
2020-07-11 02:00:00 16.7 20 Nordeste 28 Nordeste 0 -- -- 75
2020-07-11 01:00:00 18.4 19 Nordeste 26 Nordeste 0 -- -- 69
2020-07-11 00:00:00 20.5 14 Nordeste 30 Nordeste 0 -- -- 62
2020-07-10 23:00:00 23.1 18 Nordeste 42 Nordeste 0 -- -- 53
2020-07-10 22:00:00 26 23 Nordeste 34 Nordeste 0 -- -- 45
2020-07-10 21:00:00 29.6 10 Nordeste 26 Nordeste 0 -- -- 32
2020-07-10 20:00:00 30.5 13 Nordeste 28 Este 0 -- -- 30
2020-07-10 19:00:00 30.9 14 Nordeste 25 Nordeste 0 -- -- 30
2020-07-10 18:00:00 30.7 7 Nordeste 24 Nordeste 0 -- -- 30
2020-07-10 17:00:00 30.3 10 Este 33 Este 0 -- -- 31
2020-07-10 16:00:00 29.7 12 Nordeste 30 Nordeste 0 -- -- 32
2020-07-10 15:00:00 28.7 12 Norte 25 Nordeste 0 -- -- 37
2020-07-10 14:00:00 27.4 16 Norte 25 Nordeste 0 -- -- 40
2020-07-10 13:00:00 25.8 12 Nordeste 24 Nordeste 0 -- -- 44
2020-07-10 12:00:00 24 12 Norte 22 Norte 0 -- -- 50
2020-07-10 11:00:00 22 10 Nordeste 18 Nordeste 0 -- -- 58
2020-07-10 10:00:00 19.9 8 Norte 13 Nordeste 0 -- -- 64
2020-07-10 09:00:00 17.7 8 Norte 11 Nordeste 0 -- -- 72
2020-07-10 08:00:00 15.9 7 Nordeste 11 Nordeste 0 -- -- 77
2020-07-10 07:00:00 13.8 7 Este 8 Este 0 -- -- 78
2020-07-10 06:00:00 13.9 5 Nordeste 10 Nordeste 0 -- -- 79
2020-07-10 05:00:00 15.1 4 Norte 9 Norte 0 -- -- 77
2020-07-10 04:00:00 16.2 6 Nordeste 14 Norte 0 -- -- 73
2020-07-10 03:00:00 17.9 13 Nordeste 20 Nordeste 0 -- -- 69
2020-07-10 02:00:00 18.8 11 Nordeste 23 Nordeste 0 -- -- 68
2020-07-10 01:00:00 21.4 12 Norte 20 Norte 0 -- -- 53
2020-07-10 00:00:00 22.2 12 Sudeste 19 Este 0 -- -- 50
2020-07-09 23:00:00 22.9 20 Este 37 Este 0 -- -- 49
2020-07-09 22:00:00 25.9 18 Este 28 Noroeste 0 -- -- 36
2020-07-09 21:00:00 27.3 13 Norte 37 Norte 0 -- -- 30
2020-07-09 20:00:00 28.8 22 Norte 37 Noroeste 0 -- -- 25
2020-07-09 19:00:00 31.9 9 Norte 28 Norte 0 -- -- 24
2020-07-09 18:00:00 32.6 8 Norte 23 Norte 0 -- -- 25
2020-07-09 17:00:00 32.7 5 Nordeste 27 Norte 0 -- -- 25
2020-07-09 16:00:00 32.5 14 Norte 31 Noroeste 0 -- -- 25
2020-07-09 15:00:00 32.2 13 Noroeste 36 Noroeste 0 -- -- 24
2020-07-09 14:00:00 31.1 11 Oeste 28 Oeste 0 -- -- 21
2020-07-09 13:00:00 30 14 Oeste 30 Noroeste 0 -- -- 23
2020-07-09 12:00:00 28.2 15 Noroeste 25 Noroeste 0 -- -- 31
2020-07-09 11:00:00 25.7 6 Noroeste 10 Noroeste 0 -- -- 40
2020-07-09 10:00:00 22.1 4 Nordeste 11 Nordeste 0 -- -- 52
2020-07-09 09:00:00 19 4 Nordeste 9 Nordeste 0 -- -- 61
2020-07-09 08:00:00 15.8 0 Calma 5 Nordeste 0 -- -- 71
2020-07-09 07:00:00 15.2 6 Nordeste 13 Nordeste 0 -- -- 74
2020-07-09 06:00:00 15.8 9 Nordeste 14 Norte 0 -- -- 72
2020-07-09 05:00:00 17.9 11 Este 16 Este 0 -- -- 59
2020-07-09 04:00:00 18.9 7 Sudeste 14 Este 0 -- -- 55
2020-07-09 03:00:00 18.7 6 Este 18 Este 0 -- -- 58
2020-07-09 02:00:00 20.1 15 Este 32 Nordeste 0 -- -- 53
2020-07-09 01:00:00 20.2 19 Nordeste 31 Nordeste 0 -- -- 58
2020-07-09 00:00:00 20.8 22 Nordeste 30 Norte 0 -- -- 57
2020-07-08 23:00:00 21.6 15 Norte 22 Nordeste 0 -- -- 51
2020-07-08 22:00:00 23.7 10 Nordeste 27 Nordeste 0 -- -- 44
2020-07-08 21:00:00 26.2 12 Nordeste 32 Nordeste 0 -- -- 37
2020-07-08 20:00:00 27 31 Este 50 Este 0 -- -- 34
2020-07-08 19:00:00 33.8 15 Sudeste 36 Sur 0 -- -- 18
2020-07-08 18:00:00 36.1 23 Sur 44 Sur 0 -- -- 16
2020-07-08 17:00:00 36.3 22 Sur 50 Sudeste 0 -- -- 17
2020-07-08 16:00:00 35 23 Sudeste 43 Sudeste 0 -- -- 18
2020-07-08 15:00:00 35.8 22 Sudeste 43 Sudeste 0 -- -- 18
2020-07-08 14:00:00 33.2 10 Este 26 Sudeste 0 -- -- 21
2020-07-08 13:00:00 31.8 6 Nordeste 15 Este 0 -- -- 24
2020-07-08 12:00:00 28.1 6 Este 14 Nordeste 0 -- -- 33
2020-07-08 11:00:00 25.2 6 Norte 12 Nordeste 0 -- -- 39
2020-07-08 10:00:00 21.9 7 Norte 15 Este 0 -- -- 47
2020-07-08 09:00:00 18.9 6 Norte 14 Noroeste 0 -- -- 55
2020-07-08 08:00:00 17.8 0 Calma 6 Noroeste 0 -- -- 48
2020-07-08 07:00:00 18.2 0 Calma 11 Noroeste 0 -- -- 42
2020-07-08 06:00:00 19 4 Oeste 16 Norte 0 -- -- 40
2020-07-08 05:00:00 20.9 5 Sudeste 9 Este 0 -- -- 37
2020-07-08 04:00:00 20.3 6 Este 10 Este 0 -- -- 37
2020-07-08 03:00:00 21 5 Sur 14 Este 0 -- -- 35
2020-07-08 02:00:00 20.9 4 Nordeste 10 Norte 0 -- -- 34
2020-07-08 01:00:00 22.1 3 Sudoeste 8 Sur 0 -- -- 31
2020-07-08 00:00:00 22.9 4 Sur 5 Sudeste 0 -- -- 29
2020-07-07 23:00:00 24 2 Sur 4 Sudoeste 0 -- -- 29
2020-07-07 22:00:00 28.4 0 Calma 15 Noroeste 0 -- -- 24
2020-07-07 21:00:00 32.8 13 Noroeste 22 Oeste 0 -- -- 19
2020-07-07 20:00:00 34.9 15 Noroeste 28 Oeste 0 -- -- 18
2020-07-07 19:00:00 35.3 17 Oeste 32 Sudoeste 0 -- -- 17
2020-07-07 18:00:00 36.1 20 Oeste 38 Sudoeste 0 -- -- 17
2020-07-07 17:00:00 35.7 17 Oeste 29 Oeste 0 -- -- 18
2020-07-07 16:00:00 35.6 15 Sudoeste 36 Sudoeste 0 -- -- 19
2020-07-07 15:00:00 32.6 7 Nordeste 17 Oeste 0 -- -- 26
2020-07-07 14:00:00 30.9 6 Noroeste 17 Norte 0 -- -- 32
2020-07-07 13:00:00 27.6 5 Nordeste 19 Nordeste 0 -- -- 37
2020-07-07 12:00:00 24.2 9 Nordeste 17 Nordeste 0 -- -- 42
2020-07-07 11:00:00 20.9 10 Nordeste 19 Nordeste 0 -- -- 48
2020-07-07 10:00:00 18 10 Nordeste 18 Nordeste 0 -- -- 54
2020-07-07 09:00:00 15.8 11 Nordeste 17 Nordeste 0 -- -- 61
2020-07-07 08:00:00 14.1 8 Norte 14 Nordeste 0 -- -- 67
2020-07-07 07:00:00 12.9 11 Nordeste 14 Nordeste 0 -- -- 68
2020-07-07 06:00:00 13.4 9 Nordeste 13 Nordeste 0 -- -- 68
2020-07-07 05:00:00 14.2 11 Nordeste 17 Norte 0 -- -- 69
2020-07-07 04:00:00 15.3 11 Nordeste 21 Nordeste 0 -- -- 68
2020-07-07 03:00:00 16.9 14 Nordeste 30 Nordeste 0 -- -- 57
2020-07-07 02:00:00 18.3 11 Nordeste 22 Este 0 -- -- 60
2020-07-07 01:00:00 20.6 19 Este 28 Este 0 -- -- 51
2020-07-07 00:00:00 21.8 12 Este 23 Este 0 -- -- 49
2020-07-06 23:00:00 23.5 18 Este 36 Este 0 -- -- 44
2020-07-06 22:00:00 25.9 24 Nordeste 34 Nordeste 0 -- -- 40
2020-07-06 21:00:00 29.9 23 Nordeste 29 Nordeste 0 -- -- 35
2020-07-06 20:00:00 31.9 22 Nordeste 32 Este 0 -- -- 33
2020-07-06 19:00:00 32.1 15 Norte 21 Nordeste 0 -- -- 31
2020-07-06 18:00:00 33.5 6 Norte 23 Noroeste 0 -- -- 29
2020-07-06 17:00:00 33.1 11 Noroeste 22 Norte 0 -- -- 29
2020-07-06 16:00:00 32.2 9 Nordeste 26 Norte 0 -- -- 32
2020-07-06 15:00:00 31.5 12 Norte 24 Norte 0 -- -- 34
2020-07-06 14:00:00 29.8 13 Nordeste 24 Norte 0 -- -- 35
2020-07-06 13:00:00 28.4 13 Norte 23 Norte 0 -- -- 38
2020-07-06 12:00:00 26.1 13 Nordeste 22 Nordeste 0 -- -- 43
2020-07-06 11:00:00 23.8 15 Nordeste 28 Nordeste 0 -- -- 48
2020-07-06 10:00:00 21.8 16 Nordeste 25 Nordeste 0 -- -- 51
2020-07-06 09:00:00 20.3 14 Nordeste 21 Este 0 -- -- 55
2020-07-06 08:00:00 18.3 9 Nordeste 12 Nordeste 0 -- -- 65
2020-07-06 07:00:00 15.7 8 Norte 11 Norte 0 -- -- 75
2020-07-06 06:00:00 17 6 Nordeste 17 Nordeste 0 -- -- 69
2020-07-06 05:00:00 18.4 12 Nordeste 21 Nordeste 0 -- -- 66
2020-07-06 04:00:00 19.8 12 Nordeste 18 Nordeste 0 -- -- 61
2020-07-06 03:00:00 20.1 12 Nordeste 18 Este 0 -- -- 57
2020-07-06 02:00:00 21.3 11 Nordeste 16 Este 0 -- -- 50
2020-07-06 01:00:00 23.4 14 Nordeste 19 Nordeste 0 -- -- 41
2020-07-06 00:00:00 22.3 3 Sudoeste 8 Norte 0 -- -- 39
2020-07-05 23:00:00 24.1 8 Nordeste 9 Nordeste 0 -- -- 34
2020-07-05 22:00:00 28 4 Norte 15 Noroeste 0 -- -- 28
2020-07-05 21:00:00 32.7 10 Noroeste 19 Noroeste 0 -- -- 22
2020-07-05 20:00:00 33.6 10 Noroeste 22 Norte 0 -- -- 21
2020-07-05 19:00:00 33.1 6 Nordeste 17 Este 0 -- -- 21
2020-07-05 18:00:00 33.7 3 Noroeste 23 Noroeste 0 -- -- 19
2020-07-05 17:00:00 33.5 11 Noroeste 21 Norte 0 -- -- 19
2020-07-05 16:00:00 33 9 Oeste 24 Noroeste 0 -- -- 22
2020-07-05 15:00:00 31.4 6 Sudeste 36 Este 0 -- -- 25
2020-07-05 14:00:00 30 10 Nordeste 24 Nordeste 0 -- -- 28
2020-07-05 13:00:00 28.8 14 Nordeste 23 Nordeste 0 -- -- 31
2020-07-05 12:00:00 26.5 14 Nordeste 22 Norte 0 -- -- 34
2020-07-05 11:00:00 23.7 12 Norte 18 Norte 0 -- -- 40
2020-07-05 10:00:00 21.2 10 Nordeste 16 Nordeste 0 -- -- 47
2020-07-05 09:00:00 19.1 9 Norte 12 Norte 0 -- -- 53
2020-07-05 08:00:00 16.3 3 Norte 7 Norte 0 -- -- 60
2020-07-05 07:00:00 13.8 6 Norte 13 Nordeste 0 -- -- 65
2020-07-05 06:00:00 14.3 9 Norte 11 Norte 0 -- -- 63
2020-07-05 05:00:00 14.9 9 Nordeste 12 Nordeste 0 -- -- 59
2020-07-05 04:00:00 15.5 6 Nordeste 9 Nordeste 0 -- -- 54
2020-07-05 03:00:00 16 0 Calma 13 Este 0 -- -- 48
2020-07-05 02:00:00 20.1 10 Este 21 Este 0 -- -- 41
2020-07-05 01:00:00 20.7 14 Este 18 Este 0 -- -- 37
2020-07-05 00:00:00 20.9 9 Nordeste 13 Nordeste 0 -- -- 35
2020-07-04 23:00:00 22.4 11 Nordeste 15 Nordeste 0 -- -- 33
2020-07-04 22:00:00 24.9 10 Nordeste 14 Nordeste 0 -- -- 25
2020-07-04 21:00:00 29.3 12 Nordeste 18 Norte 0 -- -- 19
2020-07-04 20:00:00 30 9 Nordeste 21 Nordeste 0 -- -- 18
2020-07-04 19:00:00 31.3 5 Sudoeste 25 Norte 0 -- -- 18
2020-07-04 18:00:00 30.7 11 Norte 22 Norte 0 -- -- 19
2020-07-04 17:00:00 30 13 Nordeste 22 Nordeste 0 -- -- 20
2020-07-04 16:00:00 29.1 10 Norte 23 Norte 0 -- -- 22
2020-07-04 15:00:00 28.1 9 Nordeste 26 Norte 0 -- -- 25
2020-07-04 14:00:00 27.1 10 Nordeste 22 Nordeste 0 -- -- 26
2020-07-04 13:00:00 25.5 8 Nordeste 22 Nordeste 0 -- -- 29
2020-07-04 12:00:00 23.9 12 Nordeste 22 Nordeste 0 -- -- 31
2020-07-04 11:00:00 21.5 12 Nordeste 21 Nordeste 0 -- -- 33
2020-07-04 10:00:00 18.5 8 Nordeste 13 Nordeste 0 -- -- 45
2020-07-04 09:00:00 15.6 9 Norte 15 Nordeste 0 -- -- 56
2020-07-04 08:00:00 12.6 0 Calma 5 Nordeste 0 -- -- 62
2020-07-04 07:00:00 10.2 3 Nordeste 6 Norte 0 -- -- 66
2020-07-04 06:00:00 10.8 2 Norte 6 Nordeste 0 -- -- 63
2020-07-04 05:00:00 11.8 0 Calma 12 Nordeste 0 -- -- 58
2020-07-04 04:00:00 13.1 6 Nordeste 14 Sudeste 0 -- -- 53
2020-07-04 03:00:00 16.1 12 Sudeste 15 Sudeste 0 -- -- 45
2020-07-04 02:00:00 15.3 8 Sudeste 13 Sudeste 0 -- -- 46
2020-07-04 01:00:00 17 3 Sudoeste 15 Este 0 -- -- 41
2020-07-04 00:00:00 18.4 12 Este 15 Este 0 -- -- 38
2020-07-03 23:00:00 18.5 9 Nordeste 14 Nordeste 0 -- -- 36
2020-07-03 22:00:00 21.5 9 Nordeste 16 Norte 0 -- -- 31
2020-07-03 21:00:00 26.1 9 Nordeste 20 Nordeste 0 -- -- 24
2020-07-03 20:00:00 27.1 12 Nordeste 23 Norte 0 -- -- 24
2020-07-03 19:00:00 28.1 10 Noroeste 23 Norte 0 -- -- 25
2020-07-03 18:00:00 27.4 6 Sudeste 24 Noroeste 0 -- -- 27
2020-07-03 17:00:00 26.3 9 Nordeste 24 Noroeste 0 -- -- 26
2020-07-03 16:00:00 25.7 14 Norte 24 Norte 0 -- -- 30
2020-07-03 15:00:00 24.3 5 Nordeste 29 Nordeste 0 -- -- 34
2020-07-03 14:00:00 22.8 10 Este 35 Nordeste 0 -- -- 42
2020-07-03 13:00:00 21.3 12 Norte 24 Nordeste 0 -- -- 49
2020-07-03 12:00:00 19.1 12 Nordeste 22 Norte 0 -- -- 56
2020-07-03 11:00:00 16.8 12 Nordeste 26 Nordeste 0 -- -- 62
2020-07-03 10:00:00 14.8 13 Nordeste 26 Nordeste 0 -- -- 69
2020-07-03 09:00:00 12.9 15 Nordeste 22 Nordeste 0 -- -- 76
2020-07-03 08:00:00 10.9 7 Norte 10 Nordeste 0 -- -- 84
2020-07-03 07:00:00 8.9 7 Nordeste 12 Nordeste 0 -- -- 88
2020-07-03 06:00:00 9.6 8 Nordeste 14 Nordeste 0 -- -- 87
2020-07-03 05:00:00 10.3 10 Nordeste 15 Nordeste 0 -- -- 84
2020-07-03 04:00:00 10.7 10 Nordeste 17 Nordeste 0 -- -- 82
2020-07-03 03:00:00 11.6 11 Nordeste 19 Nordeste 0 -- -- 79
2020-07-03 02:00:00 12.6 13 Nordeste 25 Nordeste 0 -- -- 76
2020-07-03 01:00:00 14 16 Nordeste 30 Nordeste 0 -- -- 72
2020-07-03 00:00:00 17.5 18 Noroeste 29 Noroeste 0 -- -- 48
2020-07-02 23:00:00 18.6 16 Noroeste 25 Oeste 0 -- -- 44
2020-07-02 22:00:00 20.5 14 Noroeste 30 Noroeste 0 -- -- 39
2020-07-02 21:00:00 23.7 19 Noroeste 31 Noroeste 0 -- -- 34
2020-07-02 20:00:00 25.1 21 Oeste 34 Oeste 0 -- -- 30
2020-07-02 19:00:00 25.9 21 Oeste 39 Oeste 0 -- -- 30
2020-07-02 18:00:00 26.3 21 Oeste 37 Oeste 0 -- -- 31
2020-07-02 17:00:00 26.4 24 Oeste 39 Oeste 0 -- -- 31
2020-07-02 16:00:00 26.4 18 Oeste 34 Oeste 0 -- -- 33
2020-07-02 15:00:00 26.1 19 Sudoeste 30 Sudoeste 0 -- -- 36
2020-07-02 14:00:00 24.5 16 Oeste 28 Oeste 0 -- -- 42
2020-07-02 13:00:00 24.7 13 Oeste 26 Oeste 0 -- -- 44
2020-07-02 12:00:00 23.2 10 Oeste 23 Oeste 0 -- -- 46
2020-07-02 11:00:00 21.3 9 Noroeste 21 Noroeste 0 -- -- 52
2020-07-02 10:00:00 19.9 7 Noroeste 17 Noroeste 0 -- -- 55
2020-07-02 09:00:00 18.4 8 Noroeste 11 Oeste 0 -- -- 60
2020-07-02 08:00:00 15.2 6 Oeste 11 Oeste 0 -- -- 74
2020-07-02 07:00:00 13.2 3 Sudoeste 5 Sudoeste 0 -- -- 80
2020-07-02 06:00:00 14 4 Oeste 9 Oeste 0 -- -- 77
2020-07-02 05:00:00 15 2 Oeste 7 Oeste 0 -- -- 74
2020-07-02 04:00:00 15.9 4 Oeste 12 Nordeste 0 -- -- 71
2020-07-02 03:00:00 16.4 5 Oeste 10 Oeste 0 -- -- 71
2020-07-02 02:00:00 18.1 4 Oeste 9 Noroeste 0 -- -- 65
2020-07-02 01:00:00 19.5 8 Noroeste 20 Noroeste 0 -- -- 61
2020-07-02 00:00:00 21 14 Oeste 21 Oeste 0 -- -- 56
2020-07-01 23:00:00 22.5 10 Noroeste 30 Noroeste 0 -- -- 44
2020-07-01 22:00:00 24.4 13 Oeste 28 Oeste 0 -- -- 36
2020-07-01 21:00:00 27.3 19 Oeste 35 Oeste 0 -- -- 31
2020-07-01 20:00:00 28.7 24 Oeste 43 Oeste 0 -- -- 31
2020-07-01 19:00:00 29.7 21 Oeste 42 Oeste 0 -- -- 31
2020-07-01 18:00:00 29.8 23 Oeste 56 Oeste 0 -- -- 33
2020-07-01 17:00:00 30.5 24 Oeste 39 Oeste 0 -- -- 29
2020-07-01 16:00:00 30.5 19 Oeste 38 Oeste 0 -- -- 28
2020-07-01 15:00:00 29.6 22 Oeste 36 Oeste 0 -- -- 28
2020-07-01 14:00:00 29 18 Oeste 32 Oeste 0 -- -- 31
2020-07-01 13:00:00 28 18 Oeste 30 Oeste 0 -- -- 36
2020-07-01 12:00:00 26.8 14 Oeste 27 Oeste 0 -- -- 37
2020-07-01 11:00:00 24.4 12 Oeste 25 Sudoeste 0 -- -- 53
2020-07-01 10:00:00 22.6 13 Sudoeste 19 Oeste 0 -- -- 63
2020-07-01 09:00:00 20.3 11 Oeste 19 Oeste 0 -- -- 73
2020-07-01 08:00:00 17.4 8 Oeste 17 Sudoeste 0 -- -- 80
2020-07-01 07:00:00 15.9 8 Sudoeste 21 Sudoeste 0 -- -- 83
2020-07-01 06:00:00 17.3 14 Oeste 21 Sudoeste 0 -- -- 78
2020-07-01 05:00:00 18.1 14 Sudoeste 23 Sudoeste 0 -- -- 75
2020-07-01 04:00:00 18.7 14 Sudoeste 21 Sudoeste 0 -- -- 71
2020-07-01 03:00:00 19.4 10 Sudoeste 14 Sudoeste 0 -- -- 68
2020-07-01 02:00:00 20.6 4 Sudoeste 9 Noroeste 0 -- -- 57
2020-07-01 01:00:00 22.7 4 Noroeste 27 Noroeste 0 -- -- 52
2020-07-01 00:00:00 25.1 16 Noroeste 34 Noroeste 0 -- -- 46
2020-06-30 23:00:00 26.1 16 Oeste 26 Oeste 0 -- -- 38
2020-06-30 22:00:00 27.2 15 Sudoeste 25 Oeste 0 -- -- 30
2020-06-30 21:00:00 31 18 Sudoeste 32 Sudoeste 0 -- -- 25
2020-06-30 20:00:00 33 23 Sudoeste 37 Sudoeste 0 -- -- 20
2020-06-30 19:00:00 34 22 Oeste 56 Oeste 0 -- -- 18
2020-06-30 18:00:00 34.1 19 Sudoeste 40 Sudoeste 0 -- -- 22
2020-06-30 17:00:00 32.3 19 Sudoeste 33 Oeste 0 -- -- 26
2020-06-30 16:00:00 33 16 Oeste 30 Oeste 0 -- -- 27
2020-06-30 15:00:00 32.3 6 Noroeste 32 Oeste 0 -- -- 30
2020-06-30 14:00:00 31.6 10 Oeste 25 Oeste 0 -- -- 31
2020-06-30 13:00:00 29.2 4 Noroeste 15 Norte 0 -- -- 38
2020-06-30 12:00:00 27 9 Norte 18 Norte 0 -- -- 44
2020-06-30 11:00:00 24 9 Nordeste 21 Norte 0 -- -- 48
2020-06-30 10:00:00 21.6 10 Nordeste 15 Nordeste 0 -- -- 51
2020-06-30 09:00:00 19 8 Nordeste 12 Nordeste 0 -- -- 55
2020-06-30 08:00:00 16.8 7 Norte 9 Norte 0 -- -- 66
2020-06-30 07:00:00 14.7 6 Nordeste 12 Nordeste 0 -- -- 74
2020-06-30 06:00:00 15.9 10 Norte 13 Nordeste 0 -- -- 75
2020-06-30 05:00:00 16.6 7 Nordeste 12 Nordeste 0 -- -- 74
2020-06-30 04:00:00 16.8 10 Nordeste 12 Nordeste 0 -- -- 75
2020-06-30 03:00:00 18.6 10 Nordeste 15 Este 0 -- -- 68
2020-06-30 02:00:00 19.2 5 Este 15 Este 0 -- -- 65
2020-06-30 01:00:00 22.2 11 Este 18 Este 0 -- -- 56
2020-06-30 00:00:00 22.3 12 Nordeste 16 Nordeste 0 -- -- 48
2020-06-29 23:00:00 23.2 4 Norte 10 Norte 0 -- -- 44
2020-06-29 22:00:00 26.2 7 Norte 19 Norte 0 -- -- 39
2020-06-29 21:00:00 30.8 13 Noroeste 24 Noroeste 0 -- -- 29
2020-06-29 20:00:00 31.9 17 Noroeste 27 Noroeste 0 -- -- 29
2020-06-29 19:00:00 32.4 15 Noroeste 26 Noroeste 0 -- -- 29
2020-06-29 18:00:00 31.7 12 Norte 25 Noroeste 0 -- -- 31
2020-06-29 17:00:00 31.7 10 Noroeste 32 Oeste 0 -- -- 32
2020-06-29 16:00:00 29.9 6 Nordeste 21 Este 0 -- -- 37
2020-06-29 15:00:00 29.4 12 Norte 23 Oeste 0 -- -- 38
2020-06-29 14:00:00 27.3 5 Este 19 Noroeste 0 -- -- 43
2020-06-29 13:00:00 26.2 10 Norte 17 Noroeste 0 -- -- 47
2020-06-29 12:00:00 24.7 3 Oeste 15 Noroeste 0 -- -- 52
2020-06-29 11:00:00 23.1 5 Norte 12 Norte 0 -- -- 55
2020-06-29 10:00:00 21.4 5 Norte 12 Norte 0 -- -- 62
2020-06-29 09:00:00 19 8 Noroeste 13 Noroeste 0 -- -- 71
2020-06-29 08:00:00 17.2 3 Noroeste 7 Norte 0 -- -- 76
2020-06-29 07:00:00 15.1 0 Calma 5 Oeste 0 -- -- 78
2020-06-29 06:00:00 16 3 Oeste 11 Noroeste 0 -- -- 78
2020-06-29 05:00:00 15.5 2 Sudoeste 7 Oeste 0 -- -- 79
2020-06-29 04:00:00 16.4 5 Oeste 9 Noroeste 0 -- -- 75
2020-06-29 03:00:00 17.5 4 Noroeste 7 Noroeste 0 -- -- 73
2020-06-29 02:00:00 18.2 3 Noroeste 16 Noroeste 0 -- -- 69
2020-06-29 01:00:00 19.6 12 Noroeste 19 Noroeste 0 -- -- 65
2020-06-29 00:00:00 20.7 10 Noroeste 21 Noroeste 0 -- -- 60
2020-06-28 23:00:00 22.4 14 Noroeste 25 Noroeste 0 -- -- 54
2020-06-28 22:00:00 24.4 19 Noroeste 31 Oeste 0 -- -- 48
2020-06-28 21:00:00 27.6 16 Oeste 27 Oeste 0 -- -- 41
2020-06-28 20:00:00 29.2 14 Oeste 30 Oeste 0 -- -- 35
2020-06-28 19:00:00 30.2 15 Oeste 27 Oeste 0 -- -- 33
2020-06-28 18:00:00 30 11 Oeste 28 Oeste 0 -- -- 34
2020-06-28 17:00:00 29.9 13 Oeste 27 Oeste 0 -- -- 35
2020-06-28 16:00:00 29.2 10 Oeste 28 Noroeste 0 -- -- 35
2020-06-28 15:00:00 28.2 13 Noroeste 26 Noroeste 0 -- -- 37
2020-06-28 14:00:00 27.4 11 Noroeste 22 Oeste 0 -- -- 41
2020-06-28 13:00:00 25.9 6 Noroeste 22 Noroeste 0 -- -- 45
2020-06-28 12:00:00 23.7 8 Oeste 27 Oeste 0 -- -- 51
2020-06-28 11:00:00 22.3 5 Noroeste 17 Noroeste 0 -- -- 58
2020-06-28 10:00:00 20.7 9 Noroeste 16 Noroeste 0 -- -- 62
2020-06-28 09:00:00 18.1 4 Oeste 10 Sudoeste 0 -- -- 76
2020-06-28 08:00:00 15.1 5 Sudoeste 9 Sudoeste 0 -- -- 87
2020-06-28 07:00:00 13.2 6 Sudoeste 11 Sudoeste 0 -- -- 91
2020-06-28 06:00:00 13.6 6 Sudoeste 8 Sudoeste 0 -- -- 88
2020-06-28 05:00:00 14 7 Sudoeste 8 Sudoeste 0 -- -- 88
2020-06-28 04:00:00 15.2 4 Sudoeste 7 Oeste 0 -- -- 82
2020-06-28 03:00:00 16.4 3 Oeste 7 Oeste 0 -- -- 79
2020-06-28 02:00:00 17.4 4 Noroeste 12 Noroeste 0 -- -- 75
2020-06-28 01:00:00 18.2 6 Noroeste 14 Oeste 0 -- -- 70
2020-06-28 00:00:00 18.7 6 Oeste 13 Noroeste 0 -- -- 67
2020-06-27 23:00:00 20.1 8 Oeste 16 Oeste 0 -- -- 61
2020-06-27 22:00:00 22 12 Oeste 23 Oeste 0 -- -- 55
2020-06-27 21:00:00 24.6 15 Oeste 24 Noroeste 0 -- -- 47
2020-06-27 20:00:00 25.5 16 Noroeste 30 Oeste 0 -- -- 43
2020-06-27 19:00:00 26 15 Noroeste 33 Noroeste 0 -- -- 42
2020-06-27 18:00:00 26.1 18 Oeste 31 Oeste 0 -- -- 43
2020-06-27 17:00:00 26.4 18 Oeste 45 Noroeste 0 -- -- 43
2020-06-27 16:00:00 25.9 20 Noroeste 39 Oeste 0 -- -- 44
2020-06-27 15:00:00 24.9 14 Noroeste 34 Noroeste 0 -- -- 47
2020-06-27 14:00:00 24.2 17 Noroeste 27 Oeste 0 -- -- 48
2020-06-27 13:00:00 22.5 11 Oeste 24 Oeste 0 -- -- 53
2020-06-27 12:00:00 21.3 13 Oeste 28 Oeste 0 -- -- 55
2020-06-27 11:00:00 19.4 14 Oeste 28 Oeste 0 -- -- 62
2020-06-27 10:00:00 17.4 11 Sudoeste 19 Oeste 0 -- -- 72
2020-06-27 09:00:00 16.2 12 Oeste 16 Oeste 0 -- -- 78
2020-06-27 08:00:00 14.7 11 Oeste 17 Oeste 0 -- -- 84
2020-06-27 07:00:00 12.6 6 Sudoeste 14 Oeste 0 -- -- 90
2020-06-27 06:00:00 12.4 6 Sudoeste 10 Sudoeste 0 -- -- 88
2020-06-27 05:00:00 13.2 4 Sur 12 Sur 0 -- -- 85
2020-06-27 04:00:00 14.4 5 Sudoeste 18 Oeste 0 -- -- 80
2020-06-27 03:00:00 15.3 11 Oeste 22 Oeste 0 -- -- 77
2020-06-27 02:00:00 16.4 13 Oeste 25 Oeste 0 -- -- 73
2020-06-27 01:00:00 17.2 15 Oeste 26 Oeste 0 -- -- 69
2020-06-27 00:00:00 18.2 11 Oeste 26 Oeste 0 -- -- 63
2020-06-26 23:00:00 19.4 15 Oeste 26 Noroeste 0 -- -- 56
2020-06-26 22:00:00 21 19 Oeste 32 Oeste 0 -- -- 50
2020-06-26 21:00:00 23.4 22 Oeste 38 Oeste 0 -- -- 40
2020-06-26 20:00:00 25 24 Oeste 38 Oeste 0 -- -- 32
2020-06-26 19:00:00 25.4 22 Oeste 37 Oeste 0 -- -- 34
2020-06-26 18:00:00 25 23 Oeste 39 Sudoeste 0 -- -- 28
2020-06-26 17:00:00 25.5 23 Oeste 43 Oeste 0 -- -- 25
2020-06-26 16:00:00 26.3 26 Oeste 43 Oeste 0 -- -- 27
2020-06-26 15:00:00 24.9 26 Oeste 38 Oeste 0 -- -- 36
2020-06-26 14:00:00 23.9 20 Oeste 31 Sudoeste 0 -- -- 41
2020-06-26 13:00:00 19.1 17 Oeste 33 Oeste 0 -- -- 64
2020-06-26 12:00:00 16.9 12 Sudoeste 31 Sudoeste 0 -- -- 73
2020-06-26 11:00:00 18.1 20 Sudoeste 27 Sudoeste 0 -- -- 70
2020-06-26 10:00:00 16.9 15 Sudoeste 27 Sudoeste 0 -- -- 76
2020-06-26 09:00:00 15.4 15 Oeste 22 Oeste 0 -- -- 80
2020-06-26 08:00:00 14 11 Oeste 19 Sudoeste 0 -- -- 87
2020-06-26 07:00:00 13.1 9 Sudoeste 19 Sudoeste 0 -- -- 89
2020-06-26 06:00:00 13.5 10 Sudoeste 19 Sudoeste 0 -- -- 80
2020-06-26 05:00:00 14.1 11 Sudoeste 19 Sudoeste 0 -- -- 75
2020-06-26 04:00:00 15 10 Sudoeste 19 Sudoeste 0 -- -- 67
2020-06-26 03:00:00 15.9 10 Sudoeste 18 Sudoeste 0 -- -- 64
2020-06-26 02:00:00 17.6 13 Sudoeste 20 Sudoeste 0 -- -- 64
2020-06-26 01:00:00 18.7 4 Sur 15 Oeste 0 -- -- 59
2020-06-26 00:00:00 19.2 7 Oeste 14 Oeste 0 -- -- 57
2020-06-25 23:00:00 21.4 5 Sudoeste 15 Oeste 0 -- -- 53
2020-06-25 22:00:00 24.9 9 Oeste 26 Oeste 0 -- -- 41
2020-06-25 21:00:00 27.9 18 Oeste 29 Oeste 0 -- -- 35
2020-06-25 20:00:00 29.8 17 Oeste 34 Oeste 0 -- -- 32
2020-06-25 19:00:00 29.9 17 Oeste 36 Oeste 0 -- -- 31
2020-06-25 18:00:00 30.8 17 Oeste 41 Oeste 0 -- -- 31
2020-06-25 17:00:00 31.6 18 Oeste 36 Oeste 0 -- -- 30
2020-06-25 16:00:00 30.9 18 Oeste 41 Sudoeste 0 -- -- 31
2020-06-25 15:00:00 31 19 Oeste 36 Oeste 0 -- -- 30
2020-06-25 14:00:00 30.6 16 Sudoeste 33 Sudoeste 0 -- -- 31
2020-06-25 13:00:00 29.3 18 Sudoeste 31 Oeste 0 -- -- 34
2020-06-25 12:00:00 28.2 20 Oeste 32 Sudoeste 0 -- -- 36
2020-06-25 11:00:00 26.2 16 Sudoeste 24 Sudoeste 0 -- -- 45
2020-06-25 10:00:00 20.5 0 Calma 6 Noroeste 0 -- -- 67
2020-06-25 09:00:00 17.8 2 Oeste 5 Oeste 0 -- -- 81
2020-06-25 08:00:00 15.1 0 Calma 2 Oeste 0 -- -- 88
2020-06-25 07:00:00 13.7 0 Calma 3 Noroeste 0 -- -- 88
2020-06-25 06:00:00 14.8 5 Nordeste 9 Norte 0 -- -- 84
2020-06-25 05:00:00 15.8 2 Este 18 Sudeste 0 -- -- 79
2020-06-25 04:00:00 17 13 Sudeste 18 Sudeste 0 -- -- 75
2020-06-25 03:00:00 16.3 4 Sudeste 10 Este 0.2 -- -- 82
2020-06-25 02:00:00 16.1 9 Nordeste 12 Norte 0 -- -- 83
2020-06-25 01:00:00 17 9 Norte 15 Norte 0 -- -- 77
2020-06-25 00:00:00 17.9 10 Norte 18 Nordeste 0 -- -- 74
2020-06-24 23:00:00 18.8 10 Norte 17 Norte 0 -- -- 74
2020-06-24 22:00:00 20.2 5 Este 7 Este 0 -- -- 66
2020-06-24 21:00:00 20.9 4 Sudeste 12 Este 0 -- -- 69
2020-06-24 20:00:00 21.2 6 Este 17 Noroeste 0 -- -- 65
2020-06-24 19:00:00 20.6 12 Norte 19 Norte 0 -- -- 64
2020-06-24 18:00:00 21.1 15 Este 30 Este 0 -- -- 67
2020-06-24 17:00:00 21.3 23 Este 39 Este 3.6 -- -- 61
2020-06-24 16:00:00 26.4 4 Sur 18 Sudeste 0 -- -- 40
2020-06-24 15:00:00 26.1 6 Sudeste 19 Sudeste 0 -- -- 42
2020-06-24 14:00:00 24.2 9 Este 17 Este 0 -- -- 53
2020-06-24 13:00:00 25.4 0 Calma 14 Sur 0.6 -- -- 56
2020-06-24 12:00:00 27.5 6 Sudeste 32 Sudoeste 0 -- -- 38
2020-06-24 11:00:00 23.7 14 Nordeste 26 Este 0.4 -- -- 58
2020-06-24 10:00:00 23.1 4 Norte 10 Noroeste 0 -- -- 50
2020-06-24 09:00:00 20.9 2 Noroeste 13 Este 0 -- -- 54
2020-06-24 08:00:00 16.6 5 Sudoeste 12 Oeste 0 -- -- 61
2020-06-24 07:00:00 17.4 0 Calma 5 Norte 0 -- -- 55
2020-06-24 06:00:00 17.9 0 Calma 7 Norte 0 -- -- 53
2020-06-24 05:00:00 20.2 4 Este 15 Sudeste 0 -- -- 46
2020-06-24 04:00:00 20 13 Sudeste 16 Sudeste 0 -- -- 48
2020-06-24 03:00:00 18.2 2 Sudoeste 4 Sudoeste 0 -- -- 53
2020-06-24 02:00:00 19.9 2 Sudeste 5 Sudeste 0 -- -- 48
2020-06-24 01:00:00 21.2 0 Calma 17 Este 0 -- -- 43
2020-06-24 00:00:00 23.9 13 Este 20 Este 0 -- -- 37
2020-06-23 23:00:00 26.1 3 Este 12 Noroeste 0 -- -- 33
2020-06-23 22:00:00 28.8 6 Norte 16 Sudeste 0 -- -- 29
2020-06-23 21:00:00 32.2 6 Este 20 Sudoeste 0 -- -- 24
2020-06-23 20:00:00 35 5 Oeste 21 Oeste 0 -- -- 20
2020-06-23 19:00:00 34.8 15 Oeste 31 Oeste 0 -- -- 19
2020-06-23 18:00:00 33.3 5 Nordeste 19 Sudoeste 0 -- -- 22
2020-06-23 17:00:00 33.2 8 Sudoeste 25 Oeste 0 -- -- 22
2020-06-23 16:00:00 34.5 9 Sudeste 22 Oeste 0 -- -- 21
2020-06-23 15:00:00 34.2 6 Noroeste 22 Norte 0 -- -- 21
2020-06-23 14:00:00 32.3 9 Norte 19 Norte 0 -- -- 26
2020-06-23 13:00:00 29.8 9 Nordeste 17 Norte 0 -- -- 34
2020-06-23 12:00:00 27.5 9 Norte 19 Nordeste 0 -- -- 37
2020-06-23 11:00:00 24.5 10 Nordeste 15 Norte 0 -- -- 44
2020-06-23 10:00:00 21.8 8 Norte 13 Nordeste 0 -- -- 51
2020-06-23 09:00:00 19.3 6 Nordeste 11 Norte 0 -- -- 59
2020-06-23 08:00:00 16.3 2 Norte 5 Sudoeste 0 -- -- 68
2020-06-23 07:00:00 14.1 0 Calma 10 Norte 0 -- -- 72
2020-06-23 06:00:00 15.2 4 Norte 13 Nordeste 0 -- -- 69
2020-06-23 05:00:00 14.7 8 Nordeste 8 Nordeste 0 -- -- 69
2020-06-23 04:00:00 16.6 4 Nordeste 9 Nordeste 0 -- -- 60
2020-06-23 03:00:00 16 3 Nordeste 10 Nordeste 0 -- -- 58
2020-06-23 02:00:00 17.7 9 Este 11 Este 0 -- -- 52
2020-06-23 01:00:00 18.5 4 Este 12 Nordeste 0 -- -- 44
2020-06-23 00:00:00 21.7 10 Nordeste 22 Nordeste 0 -- -- 37
2020-06-22 23:00:00 22.4 10 Norte 15 Norte 0 -- -- 34
2020-06-22 22:00:00 25 8 Nordeste 17 Norte 0 -- -- 28
2020-06-22 21:00:00 30 10 Nordeste 17 Norte 0 -- -- 23
2020-06-22 20:00:00 31.6 8 Norte 22 Norte 0 -- -- 21
2020-06-22 19:00:00 31.9 13 Norte 23 Nordeste 0 -- -- 22
2020-06-22 18:00:00 32.2 13 Norte 26 Norte 0 -- -- 23
2020-06-22 17:00:00 31.4 8 Nordeste 22 Este 0 -- -- 25
2020-06-22 16:00:00 30.6 8 Nordeste 23 Este 0 -- -- 26
2020-06-22 15:00:00 29.5 9 Este 34 Nordeste 0 -- -- 31
2020-06-22 14:00:00 28.3 10 Este 28 Nordeste 0 -- -- 36
2020-06-22 13:00:00 26.9 16 Este 29 Este 0 -- -- 40
2020-06-22 12:00:00 25.2 15 Nordeste 24 Este 0 -- -- 44
2020-06-22 11:00:00 22 15 Nordeste 22 Nordeste 0 -- -- 53
2020-06-22 10:00:00 19.2 12 Nordeste 19 Nordeste 0 -- -- 63
2020-06-22 09:00:00 16.3 13 Nordeste 18 Este 0 -- -- 75
2020-06-22 08:00:00 14.1 7 Norte 10 Nordeste 0 -- -- 85
2020-06-22 07:00:00 12 7 Nordeste 10 Norte 0 -- -- 91
2020-06-22 06:00:00 12.7 9 Nordeste 12 Nordeste 0 -- -- 90
2020-06-22 05:00:00 13.1 9 Nordeste 13 Nordeste 0 -- -- 88
2020-06-22 04:00:00 14.3 11 Nordeste 16 Norte 0 -- -- 84
2020-06-22 03:00:00 15.4 10 Norte 15 Nordeste 0 -- -- 79
2020-06-22 02:00:00 17.3 10 Norte 16 Norte 0 -- -- 72
2020-06-22 01:00:00 19.5 13 Norte 23 Norte 0 -- -- 61
2020-06-22 00:00:00 21.5 16 Noroeste 24 Noroeste 0 -- -- 56
2020-06-21 23:00:00 21.1 3 Noroeste 8 Noroeste 0 -- -- 45
2020-06-21 22:00:00 24.9 2 Noroeste 12 Noroeste 0 -- -- 35
2020-06-21 21:00:00 28.9 9 Noroeste 18 Noroeste 0 -- -- 26
2020-06-21 20:00:00 29.5 9 Noroeste 22 Noroeste 0 -- -- 22
2020-06-21 19:00:00 30.2 8 Noroeste 22 Noroeste 0 -- -- 21
2020-06-21 18:00:00 30.1 10 Noroeste 29 Norte 0 -- -- 22
2020-06-21 17:00:00 29.4 10 Noroeste 27 Noroeste 0 -- -- 24
2020-06-21 16:00:00 28.4 13 Noroeste 32 Norte 0 -- -- 26
2020-06-21 15:00:00 28.3 14 Noroeste 24 Noroeste 0 -- -- 29
2020-06-21 14:00:00 26.7 11 Oeste 23 Oeste 0 -- -- 32
2020-06-21 13:00:00 25.8 8 Noroeste 17 Noroeste 0 -- -- 31
2020-06-21 12:00:00 24.3 6 Sudoeste 16 Sur 0 -- -- 32
2020-06-21 11:00:00 21.7 8 Oeste 17 Sudoeste 0 -- -- 36
2020-06-21 10:00:00 19.4 8 Oeste 15 Oeste 0 -- -- 49
2020-06-21 09:00:00 16.7 9 Oeste 15 Oeste 0 -- -- 61
2020-06-21 08:00:00 13.8 9 Oeste 14 Sudoeste 0 -- -- 77
2020-06-21 07:00:00 11.7 8 Sudoeste 13 Sudoeste 0 -- -- 84
2020-06-21 06:00:00 12 10 Sudoeste 15 Sudoeste 0 -- -- 81
2020-06-21 05:00:00 13.1 8 Sudoeste 12 Sudoeste 0 -- -- 75
2020-06-21 04:00:00 13.6 8 Sudoeste 10 Sudoeste 0 -- -- 73
2020-06-21 03:00:00 15 9 Oeste 14 Oeste 0 -- -- 69
2020-06-21 02:00:00 15.7 9 Oeste 14 Oeste 0 -- -- 62
2020-06-21 01:00:00 17.7 7 Oeste 15 Oeste 0 -- -- 54
2020-06-21 00:00:00 19.5 11 Oeste 24 Oeste 0 -- -- 43
2020-06-20 23:00:00 20.9 11 Noroeste 23 Noroeste 0 -- -- 39
2020-06-20 22:00:00 23 8 Noroeste 24 Oeste 0 -- -- 32
2020-06-20 21:00:00 26.4 17 Noroeste 27 Oeste 0 -- -- 28
2020-06-20 20:00:00 27.8 19 Oeste 31 Noroeste 0 -- -- 25
2020-06-20 19:00:00 29 19 Oeste 37 Noroeste 0 -- -- 23
2020-06-20 18:00:00 29.6 18 Oeste 33 Sudoeste 0 -- -- 24
2020-06-20 17:00:00 29.4 19 Sudoeste 36 Noroeste 0 -- -- 26
2020-06-20 16:00:00 28.8 12 Sudoeste 32 Oeste 0 -- -- 28
2020-06-20 15:00:00 28 11 Oeste 33 Sudoeste 0 -- -- 27
2020-06-20 14:00:00 26.5 11 Sudoeste 23 Sudoeste 0 -- -- 32
2020-06-20 13:00:00 25.1 6 Sudoeste 17 Sudoeste 0 -- -- 36
2020-06-20 12:00:00 23 6 Nordeste 25 Noroeste 0 -- -- 41
2020-06-20 11:00:00 21.6 5 Noroeste 15 Noroeste 0 -- -- 44
2020-06-20 10:00:00 19.6 6 Noroeste 11 Noroeste 0 -- -- 51
2020-06-20 09:00:00 17.3 4 Noroeste 8 Oeste 0 -- -- 59
2020-06-20 08:00:00 13.1 3 Sudoeste 8 Sudoeste 0 -- -- 74
2020-06-20 07:00:00 10.8 7 Sudoeste 10 Sudoeste 0 -- -- 80
2020-06-20 06:00:00 11.1 6 Sudoeste 12 Sudoeste 0 -- -- 77
2020-06-20 05:00:00 11.9 4 Oeste 7 Oeste 0 -- -- 70
2020-06-20 04:00:00 12.7 4 Sudoeste 8 Noroeste 0 -- -- 67
2020-06-20 03:00:00 14.6 3 Oeste 7 Noroeste 0 -- -- 60
2020-06-20 02:00:00 15.5 2 Oeste 15 Noroeste 0 -- -- 56
2020-06-20 01:00:00 15.8 4 Noroeste 9 Noroeste 0 -- -- 54
2020-06-20 00:00:00 15.8 5 Oeste 8 Oeste 0 -- -- 51
2020-06-19 23:00:00 17.6 2 Sur 12 Oeste 0 -- -- 43
2020-06-19 22:00:00 21.4 8 Oeste 24 Oeste 0 -- -- 34
2020-06-19 21:00:00 24.6 15 Oeste 27 Oeste 0 -- -- 29
2020-06-19 20:00:00 25.8 19 Oeste 28 Noroeste 0 -- -- 25
2020-06-19 19:00:00 27 14 Oeste 36 Sudoeste 0 -- -- 23
2020-06-19 18:00:00 27.1 17 Oeste 30 Oeste 0 -- -- 22
2020-06-19 17:00:00 26.9 16 Oeste 30 Sudoeste 0 -- -- 24
2020-06-19 16:00:00 26.2 14 Oeste 27 Sudoeste 0 -- -- 21
2020-06-19 15:00:00 25.6 14 Noroeste 30 Oeste 0 -- -- 29
2020-06-19 14:00:00 23.6 14 Oeste 24 Oeste 0 -- -- 35
2020-06-19 13:00:00 22.7 12 Oeste 25 Oeste 0 -- -- 39
2020-06-19 12:00:00 20.5 6 Norte 18 Noroeste 0 -- -- 46
2020-06-19 11:00:00 19.1 8 Norte 17 Noroeste 0 -- -- 50
2020-06-19 10:00:00 16.6 9 Noroeste 17 Noroeste 0 -- -- 63
2020-06-19 09:00:00 14.4 8 Noroeste 13 Noroeste 0 -- -- 73
2020-06-19 08:00:00 11.1 6 Oeste 9 Oeste 0 -- -- 81
2020-06-19 07:00:00 9.1 5 Oeste 8 Oeste 0 -- -- 83
2020-06-19 06:00:00 10.3 5 Oeste 12 Noroeste 0 -- -- 76
2020-06-19 05:00:00 11.7 5 Noroeste 12 Noroeste 0 -- -- 70
2020-06-19 04:00:00 12 6 Oeste 9 Oeste 0 -- -- 65
2020-06-19 03:00:00 12.5 4 Oeste 12 Noroeste 0 -- -- 63
2020-06-19 02:00:00 13.9 8 Noroeste 17 Norte 0 -- -- 59
2020-06-19 01:00:00 14.4 9 Noroeste 13 Noroeste 0 -- -- 56
2020-06-19 00:00:00 14.3 3 Oeste 6 Noroeste 0 -- -- 51
2020-06-18 23:00:00 16.9 3 Oeste 15 Oeste 0 -- -- 44
2020-06-18 22:00:00 19.6 10 Oeste 22 Oeste 0 -- -- 37
2020-06-18 21:00:00 23.1 12 Oeste 23 Noroeste 0 -- -- 29
2020-06-18 20:00:00 24.3 16 Oeste 26 Oeste 0 -- -- 29
2020-06-18 19:00:00 25 16 Oeste 35 Oeste 0 -- -- 28
2020-06-18 18:00:00 25 14 Noroeste 32 Noroeste 0 -- -- 31
2020-06-18 17:00:00 25 14 Noroeste 30 Oeste 0 -- -- 33
2020-06-18 16:00:00 23.2 6 Noroeste 23 Noroeste 0 -- -- 37
2020-06-18 15:00:00 22.6 8 Oeste 21 Noroeste 0 -- -- 39
2020-06-18 14:00:00 22.8 12 Noroeste 24 Noroeste 0 -- -- 40
2020-06-18 13:00:00 20.5 7 Norte 20 Noroeste 0 -- -- 46
2020-06-18 12:00:00 19.4 7 Noroeste 17 Nordeste 0 -- -- 49
2020-06-18 11:00:00 17 5 Norte 15 Nordeste 0 -- -- 59
2020-06-18 10:00:00 15 4 Norte 12 Noroeste 0 -- -- 68
2020-06-18 09:00:00 13.1 6 Norte 12 Noroeste 0 -- -- 75
2020-06-18 08:00:00 11.1 4 Noroeste 7 Norte 0 -- -- 83
2020-06-18 07:00:00 9.2 4 Norte 12 Norte 0 -- -- 89
2020-06-18 06:00:00 9.2 3 Noroeste 6 Noroeste 0 -- -- 87
2020-06-18 05:00:00 9.3 0 Calma 7 Norte 0 -- -- 85
2020-06-18 04:00:00 10 6 Norte 8 Norte 0 -- -- 84
2020-06-18 03:00:00 10.6 5 Norte 11 Norte 0 -- -- 80
2020-06-18 02:00:00 12.1 5 Norte 14 Norte 0 -- -- 71
2020-06-18 01:00:00 14.5 10 Norte 25 Norte 0 -- -- 63
2020-06-18 00:00:00 16.8 18 Noroeste 28 Noroeste 0 -- -- 53
2020-06-17 23:00:00 17.8 12 Noroeste 22 Noroeste 0 -- -- 45
2020-06-17 22:00:00 18.8 11 Noroeste 21 Noroeste 0 -- -- 42
2020-06-17 21:00:00 20.5 12 Oeste 24 Oeste 0 -- -- 37
2020-06-17 20:00:00 21.2 9 Oeste 25 Oeste 0 -- -- 34
2020-06-17 19:00:00 22.9 6 Norte 20 Noroeste 0 -- -- 33
2020-06-17 18:00:00 21.5 13 Noroeste 26 Noroeste 0 -- -- 35
2020-06-17 17:00:00 22.6 14 Noroeste 24 Sur 0 -- -- 33
2020-06-17 16:00:00 21.9 9 Norte 26 Noroeste 0 -- -- 35
2020-06-17 15:00:00 20.8 9 Norte 22 Noroeste 0 -- -- 38
2020-06-17 14:00:00 18.6 9 Noroeste 20 Noroeste 0 -- -- 43
2020-06-17 13:00:00 18.5 10 Este 20 Este 0 -- -- 45
2020-06-17 12:00:00 16.7 7 Noroeste 17 Norte 0 -- -- 51
2020-06-17 11:00:00 16.3 8 Norte 19 Noroeste 0 -- -- 53
2020-06-17 10:00:00 14.5 12 Norte 21 Norte 0 -- -- 61
2020-06-17 09:00:00 12.9 8 Norte 17 Noroeste 0 -- -- 70
2020-06-17 08:00:00 10.7 6 Noroeste 13 Oeste 0 -- -- 81
2020-06-17 07:00:00 9.6 6 Oeste 10 Oeste 0 -- -- 87
2020-06-17 06:00:00 8.8 8 Oeste 11 Oeste 0 -- -- 87
2020-06-17 05:00:00 8.9 4 Sur 8 Oeste 0 -- -- 85
2020-06-17 04:00:00 9.1 3 Oeste 10 Oeste 0 -- -- 83
2020-06-17 03:00:00 10.4 4 Sudoeste 12 Oeste 0 -- -- 78
2020-06-17 02:00:00 12.1 9 Oeste 21 Noroeste 0 -- -- 71
2020-06-17 01:00:00 13.1 10 Noroeste 20 Noroeste 0 -- -- 66
2020-06-17 00:00:00 13.7 12 Oeste 20 Noroeste 0 -- -- 64
2020-06-16 23:00:00 14.4 9 Noroeste 24 Noroeste 0 -- -- 61
2020-06-16 22:00:00 16.5 16 Noroeste 34 Oeste 0 -- -- 54
2020-06-16 21:00:00 18.4 22 Oeste 40 Oeste 0 -- -- 45
2020-06-16 20:00:00 20.6 24 Oeste 41 Oeste 0 -- -- 40
2020-06-16 19:00:00 20.8 26 Oeste 56 Oeste 0 -- -- 40
2020-06-16 18:00:00 21.4 32 Noroeste 44 Noroeste 0 -- -- 43
2020-06-16 17:00:00 22.1 30 Oeste 49 Oeste 0 -- -- 42
2020-06-16 16:00:00 21.9 29 Oeste 46 Oeste 0 -- -- 43
2020-06-16 15:00:00 21.4 29 Oeste 43 Noroeste 0 -- -- 44
2020-06-16 14:00:00 21.5 20 Oeste 36 Oeste 0 -- -- 43
2020-06-16 13:00:00 19.8 20 Oeste 37 Oeste 0 -- -- 47
2020-06-16 12:00:00 19.1 14 Oeste 30 Noroeste 0 -- -- 49
2020-06-16 11:00:00 18.2 14 Oeste 24 Oeste 0 -- -- 53
2020-06-16 10:00:00 16 11 Oeste 21 Oeste 0 -- -- 63
2020-06-16 09:00:00 13.3 11 Oeste 19 Sudoeste 0 -- -- 78
2020-06-16 08:00:00 12.5 3 Sur 8 Sudoeste 0 -- -- 83
2020-06-16 07:00:00 10.7 5 Sudoeste 12 Oeste 0 -- -- 90
2020-06-16 06:00:00 11.3 6 Sudoeste 12 Oeste 0 -- -- 88
2020-06-16 05:00:00 12.1 4 Oeste 9 Oeste 0 -- -- 82
2020-06-16 04:00:00 11.9 3 Noroeste 12 Noroeste 0 -- -- 79
2020-06-16 03:00:00 12.1 6 Oeste 11 Noroeste 0 -- -- 77
2020-06-16 02:00:00 13.5 5 Noroeste 16 Noroeste 0 -- -- 70
2020-06-16 01:00:00 13.9 10 Oeste 22 Oeste 0 -- -- 68
2020-06-16 00:00:00 14.5 14 Oeste 27 Oeste 0 -- -- 66
2020-06-15 23:00:00 15 18 Oeste 33 Oeste 0 -- -- 62
2020-06-15 22:00:00 15.5 18 Oeste 34 Oeste 0 -- -- 60
2020-06-15 21:00:00 16.3 20 Oeste 36 Oeste 0 -- -- 58
2020-06-15 20:00:00 17.9 22 Oeste 35 Noroeste 0 -- -- 52
2020-06-15 19:00:00 20 19 Oeste 39 Oeste 0 -- -- 46
2020-06-15 18:00:00 21.4 16 Oeste 35 Oeste 0 -- -- 42
2020-06-15 17:00:00 22.3 15 Oeste 36 Oeste 0 -- -- 40
2020-06-15 16:00:00 22.4 14 Oeste 33 Oeste 0 -- -- 40
2020-06-15 15:00:00 21.1 12 Oeste 27 Oeste 0 -- -- 43
2020-06-15 14:00:00 20.2 10 Oeste 29 Oeste 0 -- -- 47
2020-06-15 13:00:00 18.5 15 Oeste 27 Oeste 0 -- -- 51
2020-06-15 12:00:00 17.6 6 Sudoeste 17 Noroeste 0 -- -- 53
2020-06-15 11:00:00 16.4 9 Noroeste 18 Noroeste 0 -- -- 56
2020-06-15 10:00:00 14.7 10 Noroeste 18 Noroeste 0 -- -- 65
2020-06-15 09:00:00 12.9 9 Oeste 14 Oeste 0 -- -- 74
2020-06-15 08:00:00 11.8 7 Oeste 13 Oeste 0 -- -- 82
2020-06-15 07:00:00 11 5 Oeste 8 Oeste 0 -- -- 84
2020-06-15 06:00:00 10.9 6 Oeste 10 Oeste 0 -- -- 85
2020-06-15 05:00:00 10.4 7 Oeste 11 Oeste 0 -- -- 86
2020-06-15 04:00:00 10.1 4 Sudoeste 9 Sudoeste 0 -- -- 84
2020-06-15 03:00:00 11.5 6 Sudoeste 10 Oeste 0 -- -- 79
2020-06-15 02:00:00 12.1 4 Oeste 8 Oeste 0 -- -- 76
2020-06-15 01:00:00 12.7 4 Oeste 14 Noroeste 0 -- -- 71
2020-06-15 00:00:00 13.9 12 Noroeste 23 Noroeste 0 -- -- 66
2020-06-14 23:00:00 14.6 14 Noroeste 22 Noroeste 0 -- -- 64
2020-06-14 22:00:00 15.8 13 Noroeste 28 Noroeste 0 -- -- 58
2020-06-14 21:00:00 17.8 15 Noroeste 28 Oeste 0 -- -- 49
2020-06-14 20:00:00 20.4 18 Oeste 28 Noroeste 0 -- -- 42
2020-06-14 19:00:00 20.3 17 Oeste 31 Oeste 0 -- -- 41
2020-06-14 18:00:00 20.8 14 Oeste 33 Oeste 0 -- -- 40
2020-06-14 17:00:00 21.4 17 Oeste 37 Noroeste 0 -- -- 38
2020-06-14 16:00:00 21.7 15 Oeste 31 Oeste 0 -- -- 37
2020-06-14 15:00:00 21.1 14 Oeste 28 Sudoeste 0 -- -- 37
2020-06-14 14:00:00 20.1 12 Sudoeste 30 Sudoeste 0 -- -- 38
2020-06-14 13:00:00 18.4 14 Sudoeste 23 Sudoeste 0 -- -- 40
2020-06-14 12:00:00 17 12 Oeste 19 Sudoeste 0 -- -- 43
2020-06-14 11:00:00 16.6 10 Sudoeste 20 Sudoeste 0 -- -- 44
2020-06-14 10:00:00 14.6 9 Sudoeste 14 Sudoeste 0 -- -- 51
2020-06-14 09:00:00 11.8 8 Sudoeste 12 Sudoeste 0 -- -- 72
2020-06-14 08:00:00 8 2 Sur 5 Sur 0 -- -- 90
2020-06-14 07:00:00 6.8 3 Sur 9 Sudoeste 0 -- -- 88
2020-06-14 06:00:00 7.5 4 Sudoeste 15 Oeste 0 -- -- 82
2020-06-14 05:00:00 7.6 3 Sudoeste 7 Sudoeste 0 -- -- 85
2020-06-14 04:00:00 7.8 4 Sudoeste 5 Sudoeste 0 -- -- 81
2020-06-14 03:00:00 8.8 5 Sudoeste 11 Oeste 0 -- -- 76
2020-06-14 02:00:00 9.9 2 Sudoeste 13 Oeste 0 -- -- 72
2020-06-14 01:00:00 11.2 10 Oeste 17 Oeste 0 -- -- 68
2020-06-14 00:00:00 11.2 6 Oeste 13 Oeste 0 -- -- 72
2020-06-13 23:00:00 12.6 7 Oeste 16 Oeste 0 -- -- 65
2020-06-13 22:00:00 14.5 11 Oeste 28 Oeste 0 -- -- 59
2020-06-13 21:00:00 16.6 20 Oeste 35 Oeste 0 -- -- 49
2020-06-13 20:00:00 17 20 Oeste 37 Oeste 0 -- -- 46
2020-06-13 19:00:00 18.8 19 Oeste 32 Oeste 0 -- -- 43
2020-06-13 18:00:00 18 19 Oeste 33 Oeste 0 -- -- 49
2020-06-13 17:00:00 18.1 21 Oeste 36 Oeste 0 -- -- 48
2020-06-13 16:00:00 17.6 20 Oeste 37 Oeste 0 -- -- 51
2020-06-13 15:00:00 17.1 17 Oeste 31 Oeste 0 -- -- 50
2020-06-13 14:00:00 16 17 Oeste 31 Oeste 0 -- -- 53
2020-06-13 13:00:00 16.5 18 Oeste 35 Sudoeste 0 -- -- 50
2020-06-13 12:00:00 15.7 13 Oeste 30 Sudoeste 0 -- -- 54
2020-06-13 11:00:00 13.7 20 Oeste 33 Sudoeste 0 -- -- 62
2020-06-13 10:00:00 11.9 17 Oeste 30 Sudoeste 0 -- -- 72
2020-06-13 09:00:00 10.4 20 Oeste 33 Sudoeste 0 -- -- 79
2020-06-13 08:00:00 9.1 20 Oeste 33 Oeste 0 -- -- 87
2020-06-13 07:00:00 7.9 16 Sudoeste 31 Sudoeste 0 -- -- 92
2020-06-13 06:00:00 8.2 13 Sudoeste 27 Oeste 0 -- -- 90
2020-06-13 05:00:00 8.7 19 Oeste 31 Sudoeste 0 -- -- 88
2020-06-13 04:00:00 9.1 21 Oeste 33 Oeste 0 -- -- 88
2020-06-13 03:00:00 9.6 23 Oeste 34 Sudoeste 0 -- -- 85
2020-06-13 02:00:00 10 14 Sudoeste 34 Oeste 0 -- -- 84
2020-06-13 01:00:00 10.5 19 Oeste 33 Oeste 0 -- -- 81
2020-06-13 00:00:00 10.7 21 Oeste 39 Oeste 0 -- -- 79
2020-06-12 23:00:00 11.1 21 Oeste 33 Oeste 0 -- -- 76
2020-06-12 22:00:00 11.9 21 Oeste 36 Oeste 0 -- -- 71
2020-06-12 21:00:00 12.9 24 Oeste 42 Oeste 0 -- -- 66
2020-06-12 20:00:00 14.9 26 Oeste 44 Sudoeste 0 -- -- 63
2020-06-12 19:00:00 14.6 27 Oeste 44 Sudoeste 0.2 -- -- 70
2020-06-12 18:00:00 13.5 30 Sudoeste 61 Sudoeste 0.2 -- -- 74
2020-06-12 17:00:00 14.4 42 Sudoeste 63 Sudoeste 0 -- -- 69
2020-06-12 16:00:00 14.3 22 Oeste 42 Oeste 0.8 -- -- 73
2020-06-12 15:00:00 13.2 29 Oeste 54 Sudoeste 0.8 -- -- 76
2020-06-12 14:00:00 16.1 31 Sudoeste 50 Oeste 0 -- -- 56
2020-06-12 13:00:00 13.5 31 Sudoeste 43 Sudoeste 0 -- -- 66
2020-06-12 12:00:00 13.5 28 Oeste 45 Oeste 0 -- -- 70
2020-06-12 11:00:00 11.4 30 Sudoeste 44 Sudoeste 0.2 -- -- 85
2020-06-12 10:00:00 9.1 24 Sudoeste 37 Oeste 0 -- -- 91
2020-06-12 09:00:00 8.8 23 Sudoeste 43 Sudoeste 0 -- -- 88
2020-06-12 08:00:00 8.7 28 Sudoeste 44 Sudoeste 0 -- -- 84
2020-06-12 07:00:00 8.7 27 Sudoeste 48 Sudoeste 0 -- -- 82
2020-06-12 06:00:00 8.2 33 Sudoeste 52 Sudoeste 0 -- -- 81
2020-06-12 05:00:00 7.9 28 Sudoeste 49 Sudoeste 0 -- -- 81
2020-06-12 04:00:00 7.6 25 Sudoeste 40 Sudoeste 0 -- -- 81
2020-06-12 03:00:00 7.6 18 Sudoeste 37 Sudoeste 0 -- -- 77
2020-06-12 02:00:00 8.6 21 Oeste 36 Oeste 0 -- -- 70
2020-06-12 01:00:00 9.5 21 Oeste 39 Oeste 0 -- -- 66
2020-06-12 00:00:00 10.8 22 Oeste 39 Oeste 0 -- -- 60